Time;durP1;ratioP1;P1;durP2;ratioP2;P2;SDS_P1;SDS_P2;PMS_P1;PMS_P2;Temp;Humidity;BMP_temperature;BMP_pressure;BME280_temperature;BME280_humidity;BME280_pressure;Samples;Min_cycle;Max_cycle;Signal;HPM_P1;HPM_P2
2021/10/28 00:13:08;;;;;;;14.77;11.45;;;;;;;8.70;100.00;101052.59;4969449;28;20050;-52
2021/10/28 00:15:38;;;;;;;18.52;11.20;;;;;;;8.71;100.00;101049.94;5033756;28;20045;-54
2021/10/28 00:18:17;;;;;;;13.48;11.23;;;;;;;8.64;100.00;101026.41;5031246;28;20053;-52
2021/10/28 00:20:45;;;;;;;16.40;11.63;;;;;;;8.78;100.00;101053.28;5037539;28;20056;-53
2021/10/28 00:23:11;;;;;;;17.33;11.35;;;;;;;8.77;100.00;101043.63;5045519;28;20068;-52
2021/10/28 00:25:38;;;;;;;15.90;11.60;;;;;;;8.76;100.00;101050.66;5040938;28;20052;-52
2021/10/28 00:28:06;;;;;;;16.33;11.65;;;;;;;8.74;100.00;101041.06;5029249;28;20398;-53
2021/10/28 00:30:33;;;;;;;16.15;10.90;;;;;;;8.69;100.00;101046.47;5040100;28;20444;-53
2021/10/28 00:32:59;;;;;;;15.77;10.98;;;;;;;8.64;100.00;101045.75;5034491;28;20068;-53
2021/10/28 00:35:27;;;;;;;14.70;10.65;;;;;;;8.58;100.00;101045.03;5038835;28;20096;-54
2021/10/28 00:37:53;;;;;;;13.45;10.27;;;;;;;8.54;100.00;101040.75;5034436;28;20048;-52
2021/10/28 00:40:20;;;;;;;14.88;10.32;;;;;;;8.51;100.00;101044.34;5036712;28;20041;-54
2021/10/28 00:42:46;;;;;;;14.43;10.05;;;;;;;8.52;100.00;101039.94;5033343;28;20045;-54
2021/10/28 00:45:13;;;;;;;12.38;10.00;;;;;;;8.52;100.00;101042.56;5041200;28;20049;-53
2021/10/28 00:47:41;;;;;;;19.67;10.35;;;;;;;8.46;100.00;101048.03;5028292;28;20127;-54
2021/10/28 00:50:08;;;;;;;14.68;10.75;;;;;;;8.44;100.00;101040.16;5041602;28;20051;-53
2021/10/28 00:52:36;;;;;;;13.98;10.93;;;;;;;8.43;100.00;101038.44;5036524;28;20045;-53
2021/10/28 00:55:03;;;;;;;16.88;10.70;;;;;;;8.43;100.00;101033.16;5039996;28;20041;-55
2021/10/28 00:57:32;;;;;;;15.80;10.27;;;;;;;8.43;100.00;101038.44;5033590;28;20052;-51
2021/10/28 00:59:59;;;;;;;15.83;11.20;;;;;;;8.41;100.00;101037.59;5040550;28;20403;-52
2021/10/28 01:02:26;;;;;;;12.60;10.05;;;;;;;8.40;100.00;101038.50;5034792;28;20089;-52
2021/10/28 01:04:53;;;;;;;14.73;11.23;;;;;;;8.36;100.00;101040.34;5039641;28;20064;-51
2021/10/28 01:07:19;;;;;;;14.70;11.10;;;;;;;8.33;100.00;101039.59;5034912;28;20048;-52
2021/10/28 01:09:47;;;;;;;15.25;11.57;;;;;;;8.31;100.00;101033.47;5035286;28;20140;-52
2021/10/28 01:12:14;;;;;;;17.65;11.60;;;;;;;8.20;100.00;101017.91;5041119;28;20045;-52
2021/10/28 01:14:45;;;;;;;15.45;11.95;;;;;;;8.31;100.00;101039.59;5041068;28;20498;-53
2021/10/28 01:17:12;;;;;;;15.93;10.70;;;;;;;8.32;100.00;101040.50;5034662;28;20141;-52
2021/10/28 01:19:40;;;;;;;14.30;11.93;;;;;;;8.26;100.00;101038.00;5037106;28;20049;-53
2021/10/28 01:22:07;;;;;;;17.92;13.07;;;;;;;8.20;100.00;101040.78;5039182;28;20048;-54
2021/10/28 01:24:33;;;;;;;14.55;12.18;;;;;;;8.17;100.00;101033.84;5039947;28;20057;-52
2021/10/28 01:27:02;;;;;;;14.43;11.43;;;;;;;8.15;100.00;101025.09;5034045;28;20048;-53
2021/10/28 01:29:29;;;;;;;13.80;10.38;;;;;;;8.13;100.00;101036.59;5034569;28;20045;-52
2021/10/28 01:31:56;;;;;;;16.50;11.10;;;;;;;8.08;100.00;101029.66;5040533;28;20045;-53
2021/10/28 01:34:23;;;;;;;13.43;10.68;;;;;;;8.04;100.00;101024.50;5043221;28;20049;-53
2021/10/28 01:36:50;;;;;;;16.23;11.43;;;;;;;8.04;100.00;101025.38;5033132;28;20616;-53
2021/10/28 01:39:21;;;;;;;16.40;11.65;;;;;;;8.03;100.00;101026.25;5037283;28;20041;-52
2021/10/28 01:41:48;;;;;;;14.75;10.60;;;;;;;8.02;100.00;101027.22;5040799;28;20044;-53
2021/10/28 01:44:15;;;;;;;15.68;10.93;;;;;;;8.03;100.00;101014.84;5036370;28;20065;-53
2021/10/28 01:46:42;;;;;;;15.50;11.75;;;;;;;8.00;100.00;101018.47;5039064;28;20067;-54
2021/10/28 01:49:19;;;;;;;17.27;11.55;;;;;;;7.97;100.00;101010.63;5030654;28;20449;-52
2021/10/28 01:51:46;;;;;;;15.68;11.82;;;;;;;7.97;100.00;101017.66;5036877;28;20049;-54
2021/10/28 01:54:12;;;;;;;16.88;12.43;;;;;;;7.95;100.00;101011.56;5039750;28;20135;-54
2021/10/28 01:56:39;;;;;;;18.80;12.93;;;;;;;7.92;100.00;101009.88;5040446;28;20141;-54
2021/10/28 01:59:06;;;;;;;14.82;12.90;;;;;;;7.89;100.00;101002.03;5030513;28;20068;-53
2021/10/28 02:01:32;;;;;;;18.17;13.77;;;;;;;7.90;100.00;100997.63;5036939;28;20049;-53
2021/10/28 02:04:00;;;;;;;19.70;14.70;;;;;;;7.91;100.00;100994.94;5043506;28;20055;-53
2021/10/28 02:06:28;;;;;;;18.77;14.20;;;;;;;7.93;100.00;101000.19;5040242;28;20048;-53
2021/10/28 02:08:55;;;;;;;19.38;14.05;;;;;;;7.91;100.00;100999.34;5029285;28;20051;-53
2021/10/28 02:11:22;;;;;;;20.55;15.02;;;;;;;7.93;100.00;100995.78;5040355;28;20053;-52
2021/10/28 02:13:48;;;;;;;19.40;15.63;;;;;;;7.95;100.00;100991.34;5037777;28;20043;-54
2021/10/28 02:16:15;;;;;;;21.10;15.43;;;;;;;7.93;100.00;100987.00;5035099;28;20409;-54
2021/10/28 02:18:42;;;;;;;24.63;16.23;;;;;;;7.91;100.00;100986.19;5027833;28;20057;-55
2021/10/28 02:21:08;;;;;;;21.70;16.48;;;;;;;7.94;100.00;100980.81;5042271;28;20044;-54
2021/10/28 02:23:35;;;;;;;20.48;15.40;;;;;;;7.92;100.00;100972.09;5041255;28;20107;-54
2021/10/28 02:26:02;;;;;;;22.63;16.33;;;;;;;7.92;100.00;100982.63;5044143;28;20072;-56
2021/10/28 02:28:28;;;;;;;23.55;15.60;;;;;;;7.91;100.00;100979.13;5040306;28;20049;-52
2021/10/28 02:30:55;;;;;;;22.00;15.88;;;;;;;7.85;100.00;100981.94;5038298;28;20500;-52
2021/10/28 02:33:21;;;;;;;23.65;16.77;;;;;;;7.82;100.00;100982.03;5038010;28;20481;-54
2021/10/28 02:35:48;;;;;;;20.88;15.95;;;;;;;7.83;100.00;100988.16;5034383;28;20494;-52
2021/10/28 02:38:14;;;;;;;19.60;15.65;;;;;;;7.82;100.00;100976.75;5024323;28;20049;-53
2021/10/28 02:40:41;;;;;;;21.30;16.25;;;;;;;7.81;100.00;100967.09;5043405;28;20037;-53
2021/10/28 02:43:07;;;;;;;20.73;15.73;;;;;;;7.85;100.00;100974.03;5039465;28;20067;-52
2021/10/28 02:45:34;;;;;;;21.00;16.45;;;;;;;7.81;100.00;100974.16;5035535;28;20058;-52
2021/10/28 02:48:01;;;;;;;24.75;17.00;;;;;;;7.79;100.00;100973.31;5030459;28;20050;-53
2021/10/28 02:50:27;;;;;;;23.15;16.50;;;;;;;7.74;100.00;100976.94;5039173;28;20056;-55
2021/10/28 02:52:54;;;;;;;20.73;16.02;;;;;;;7.70;100.00;100971.81;5034955;28;20067;-52
2021/10/28 02:55:20;;;;;;;21.83;15.65;;;;;;;7.65;100.00;100968.41;5040105;28;20612;-53
2021/10/28 02:57:47;;;;;;;23.70;16.55;;;;;;;7.62;100.00;100969.34;5036581;28;20053;-53
2021/10/28 03:00:14;;;;;;;21.30;16.83;;;;;;;7.60;100.00;100967.66;5032129;28;20045;-53
2021/10/28 03:02:41;;;;;;;23.10;17.13;;;;;;;7.57;100.00;100973.00;5033504;28;20044;-53
2021/10/28 03:05:10;;;;;;;24.83;17.95;;;;;;;7.59;100.00;100973.81;5022350;28;20041;-51
2021/10/28 03:07:38;;;;;;;22.48;16.73;;;;;;;7.57;100.00;100973.88;5029985;28;20049;-53
2021/10/28 03:10:06;;;;;;;23.95;18.13;;;;;;;7.62;100.00;100968.50;5039333;28;20052;-53
2021/10/28 03:12:36;;;;;;;24.13;17.77;;;;;;;7.65;100.00;100964.00;5033079;28;20052;-51
2021/10/28 03:15:06;;;;;;;24.42;17.00;;;;;;;7.67;100.00;100966.59;5038195;28;20544;-53
2021/10/28 03:25:41;;;;;;;25.83;17.58;;;;;;;7.53;100.00;100950.28;5035411;28;20139;-53
2021/10/28 03:28:14;;;;;;;24.23;17.90;;;;;;;7.54;100.00;100958.16;5035839;28;20045;-53
2021/10/28 03:30:40;;;;;;;24.92;17.90;;;;;;;7.53;100.00;100953.78;5036738;28;20056;-54
2021/10/28 03:33:10;;;;;;;24.38;17.38;;;;;;;7.49;100.00;100953.91;5043260;28;20041;-53
2021/10/28 03:35:37;;;;;;;25.38;18.48;;;;;;;7.48;100.00;100955.66;5044473;28;20041;-53
2021/10/28 03:38:17;;;;;;;23.80;17.25;;;;;;;7.43;100.00;100952.28;5031075;28;20045;-53
2021/10/28 03:49:30;;;;;;;25.30;18.15;;;;;;;7.33;100.00;100951.66;4956245;28;20050;-54
2021/10/28 04:29:35;;;;;;;19.55;14.65;;;;;;;6.79;100.00;100927.47;5031697;28;20052;-51
2021/10/28 04:32:03;;;;;;;21.38;15.43;;;;;;;6.87;100.00;100936.09;5043556;28;20048;-52
2021/10/28 04:34:29;;;;;;;20.33;15.00;;;;;;;6.78;100.00;100927.50;5038287;28;20501;-53
2021/10/28 04:36:56;;;;;;;20.67;15.23;;;;;;;6.87;100.00;100951.88;5036357;28;20041;-53
2021/10/28 04:39:22;;;;;;;23.70;15.27;;;;;;;6.88;100.00;100950.13;5032247;28;20062;-52
2021/10/28 04:41:49;;;;;;;23.08;14.88;;;;;;;6.85;100.00;100948.41;5036490;28;20049;-52
2021/10/28 04:44:16;;;;;;;20.35;14.65;;;;;;;6.82;100.00;100942.34;5040584;28;20463;-53
2021/10/28 04:46:42;;;;;;;20.23;14.20;;;;;;;6.79;100.00;100945.03;5032251;28;20046;-55
2021/10/28 04:49:09;;;;;;;18.98;14.52;;;;;;;6.75;100.00;100939.00;5034204;28;20073;-54
2021/10/28 04:51:36;;;;;;;20.67;14.48;;;;;;;6.75;100.00;100941.63;5044314;28;20044;-53
2021/10/28 04:54:02;;;;;;;22.23;16.20;;;;;;;6.77;100.00;100939.81;5035474;28;20059;-61
2021/10/28 04:56:29;;;;;;;22.85;15.68;;;;;;;6.81;100.00;100940.63;5043798;28;20052;-53
2021/10/28 04:58:56;;;;;;;24.27;16.33;;;;;;;6.81;100.00;100941.47;5033496;28;20041;-53
2021/10/28 05:01:25;;;;;;;21.73;16.25;;;;;;;6.85;100.00;100926.50;5037425;28;20037;-56
2021/10/28 05:03:52;;;;;;;24.15;16.33;;;;;;;6.85;100.00;100931.75;5040219;28;20110;-54
2021/10/28 05:06:18;;;;;;;22.55;16.35;;;;;;;6.88;100.00;100937.81;5042489;28;20048;-53
2021/10/28 05:08:45;;;;;;;25.10;16.67;;;;;;;6.86;100.00;100930.84;5036365;28;20048;-52
2021/10/28 05:11:16;;;;;;;26.25;17.88;;;;;;;6.90;100.00;100935.16;5040071;28;20513;-53
2021/10/28 05:13:43;;;;;;;26.23;17.27;;;;;;;6.89;100.00;100936.06;5036780;28;20049;-53
2021/10/28 05:16:09;;;;;;;23.73;16.85;;;;;;;6.92;100.00;100934.22;5040425;28;20056;-51
2021/10/28 05:18:40;;;;;;;27.45;18.23;;;;;;;6.93;100.00;100928.03;5034054;28;20049;-53
2021/10/28 05:21:11;;;;;;;22.63;16.67;;;;;;;6.95;100.00;100931.50;5038610;28;20041;-52
2021/10/28 05:23:38;;;;;;;21.35;15.25;;;;;;;6.87;100.00;100922.06;5042128;28;20052;-52
2021/10/28 05:26:06;;;;;;;22.35;15.15;;;;;;;6.88;100.00;100921.16;5041114;28;20052;-53
2021/10/28 05:28:33;;;;;;;21.85;14.80;;;;;;;6.71;100.00;100908.38;5034459;28;20041;-53
2021/10/28 05:31:00;;;;;;;21.65;15.63;;;;;;;6.80;100.00;100916.06;5041189;28;20501;-52
2021/10/28 05:33:28;;;;;;;27.45;16.95;;;;;;;6.77;100.00;100917.91;5040927;28;20076;-56
2021/10/28 05:35:54;;;;;;;27.05;18.35;;;;;;;6.76;100.00;100927.56;5035675;28;20379;-54
2021/10/28 05:38:21;;;;;;;26.73;17.90;;;;;;;6.80;100.00;100915.19;5030203;28;20678;-53
2021/10/28 05:40:49;;;;;;;23.67;16.20;;;;;;;6.63;100.00;100895.38;5031951;28;20046;-54
2021/10/28 05:43:15;;;;;;;20.30;13.60;;;;;;;6.62;100.00;100932.25;5032550;28;20058;-54
2021/10/28 05:45:43;;;;;;;21.17;13.45;;;;;;;6.47;100.00;100919.44;5035466;28;20044;-52
2021/10/28 05:48:10;;;;;;;15.30;11.43;;;;;;;6.41;100.00;100919.59;5040506;28;20981;-51
2021/10/28 05:50:37;;;;;;;15.18;11.90;;;;;;;6.26;100.00;100921.66;5026207;28;20624;-53
2021/10/28 05:53:03;;;;;;;18.25;12.93;;;;;;;6.14;100.00;100914.00;5029934;28;20890;-52
2021/10/28 05:55:30;;;;;;;21.58;15.18;;;;;;;6.19;100.00;100921.78;5031071;28;20540;-53
2021/10/28 05:57:56;;;;;;;23.60;15.43;;;;;;;6.11;100.00;100900.06;5031740;28;20049;-52
2021/10/28 06:00:24;;;;;;;28.85;17.73;;;;;;;6.25;100.00;100914.66;5016453;28;20045;-53
2021/10/28 06:02:51;;;;;;;34.97;17.90;;;;;;;6.37;100.00;100915.28;5030650;28;20052;-53
2021/10/28 06:05:18;;;;;;;27.33;16.65;;;;;;;6.41;100.00;100915.19;5027459;28;20041;-53
2021/10/28 06:07:45;;;;;;;25.55;15.80;;;;;;;6.35;100.00;100920.56;5017501;28;20538;-53
2021/10/28 06:10:16;;;;;;;22.23;14.90;;;;;;;6.27;100.00;100918.13;5012927;28;20055;-52
2021/10/28 06:12:45;;;;;;;20.98;13.70;;;;;;;6.19;100.00;100911.28;5026500;28;20048;-54
2021/10/28 06:15:13;;;;;;;18.20;12.95;;;;;;;6.08;100.00;100908.00;5021589;28;20052;-53
2021/10/28 06:17:59;;;;;;;18.27;13.15;;;;;;;5.97;100.00;100926.63;5014913;28;20056;-53
2021/10/28 06:20:26;;;;;;;20.88;13.77;;;;;;;5.90;100.00;100925.88;5023460;28;20528;-52
2021/10/28 06:22:53;;;;;;;23.50;14.05;;;;;;;5.94;100.00;100918.81;5022992;28;20415;-54
2021/10/28 06:25:20;;;;;;;23.15;14.32;;;;;;;5.99;100.00;100927.44;5024223;28;20079;-51
2021/10/28 06:27:48;;;;;;;16.95;12.10;;;;;;;5.91;100.00;100929.38;5020577;28;20123;-53
2021/10/28 06:30:14;;;;;;;17.88;13.15;;;;;;;5.81;100.00;100923.41;5016349;28;20049;-53
2021/10/28 06:32:43;;;;;;;24.05;15.30;;;;;;;5.92;100.00;100918.84;5016877;28;20056;-53
2021/10/28 06:35:10;;;;;;;26.80;16.27;;;;;;;6.13;100.00;100916.69;5025011;28;20054;-53
2021/10/28 06:37:37;;;;;;;25.90;15.68;;;;;;;6.16;100.00;100920.09;5018216;28;20052;-53
2021/10/28 06:40:04;;;;;;;27.40;15.13;;;;;;;6.24;100.00;100919.94;5016209;28;20273;-52
2021/10/28 06:42:30;;;;;;;26.25;17.27;;;;;;;6.33;100.00;100919.75;5020348;28;20060;-53
2021/10/28 06:45:08;;;;;;;21.77;15.32;;;;;;;6.38;100.00;100922.28;5014799;28;20071;-53
2021/10/28 06:47:35;;;;;;;21.90;14.38;;;;;;;6.37;100.00;100918.78;5010361;28;20056;-53
2021/10/28 06:50:06;;;;;;;22.40;14.55;;;;;;;6.37;100.00;100918.78;5030970;28;20045;-53
2021/10/28 06:55:38;;;;;;;36.33;19.60;;;;;;;6.44;100.00;100917.78;5011856;28;20065;-52
2021/10/28 07:03:36;;;;;;;22.65;14.85;;;;;;;6.57;100.00;100919.22;5043815;28;20045;-54
2021/10/28 07:06:08;;;;;;;21.77;14.75;;;;;;;6.43;100.00;100892.34;5038707;28;20072;-54
2021/10/28 07:08:37;;;;;;;23.73;15.10;;;;;;;6.47;100.00;100919.44;5031536;28;20506;-54
2021/10/28 07:11:09;;;;;;;24.10;15.73;;;;;;;6.56;100.00;100920.13;5032282;28;20063;-53
2021/10/28 07:13:38;;;;;;;21.83;14.10;;;;;;;6.56;100.00;100917.50;5035134;28;20057;-53
2021/10/28 07:16:14;;;;;;;20.05;13.65;;;;;;;6.56;100.00;100925.38;5041319;28;20037;-53
2021/10/28 07:26:51;;;;;;;27.45;17.15;;;;;;;6.66;100.00;100926.91;5038062;28;20044;-53
2021/10/28 07:34:52;;;;;;;33.63;19.23;;;;;;;7.01;100.00;100935.75;5043803;28;20132;-54
2021/10/28 08:23:25;;;;;;;30.33;18.67;;;;;;;8.81;92.42;100921.16;5033393;28;20052;-53
2021/10/28 08:29:31;;;;;;;32.17;18.88;;;;;;;8.85;91.66;100917.47;5033390;28;20468;-52
2021/10/28 08:31:27;;;;;;;28.15;17.77;;;;;;;8.82;90.58;100911.41;5015258;28;20538;-54
2021/10/28 08:33:54;;;;;;;28.52;17.92;;;;;;;8.79;91.45;100917.69;5033138;28;20130;-52
2021/10/28 08:36:26;;;;;;;28.17;18.00;;;;;;;8.78;91.51;100918.59;5036066;28;20049;-53
2021/10/28 08:38:54;;;;;;;27.60;18.23;;;;;;;8.74;91.75;100925.75;5022318;28;20053;-52
2021/10/28 08:41:23;;;;;;;31.35;19.27;;;;;;;8.72;92.42;100927.56;5026958;28;20040;-52
2021/10/28 08:43:51;;;;;;;30.85;19.27;;;;;;;8.66;92.82;100906.63;5030673;28;20045;-52
2021/10/28 08:46:18;;;;;;;28.90;18.13;;;;;;;8.84;93.00;100930.72;5036152;28;20061;-51
2021/10/28 08:48:55;;;;;;;31.55;19.17;;;;;;;8.87;92.87;100925.34;5029670;28;20531;-54
2021/10/28 08:52:33;;;;;;;30.67;19.08;;;;;;;8.92;93.28;100929.59;5028486;28;20052;-53
2021/10/28 08:57:19;;;;;;;29.95;19.83;;;;;;;9.20;91.65;100926.91;5028747;28;20382;-52
2021/10/28 09:24:57;;;;;;;29.20;19.63;;;;;;;9.19;91.01;100919.91;5037061;28;20550;-52
2021/10/28 09:27:28;;;;;;;28.38;19.92;;;;;;;9.31;90.72;100913.34;5033818;28;20045;-52
2021/10/28 09:30:13;;;;;;;31.85;20.52;;;;;;;9.37;90.64;100906.06;5025108;28;20051;-52
2021/10/28 09:32:44;;;;;;;32.60;20.38;;;;;;;9.52;89.59;100909.09;5038794;28;20055;-55
2021/10/28 09:35:44;;;;;;;26.67;19.20;;;;;;;9.64;89.89;100900.75;5038007;28;20048;-53
2021/10/28 09:47:39;;;;;;;30.15;19.63;;;;;;;9.98;87.07;100893.34;5014063;28;20053;-57
2021/10/28 09:50:12;;;;;;;34.33;22.33;;;;;;;9.92;86.49;100888.25;5013239;28;20495;-54
2021/10/28 09:52:52;;;;;;;34.97;21.67;;;;;;;9.90;86.86;100892.78;5020993;28;20074;-53
2021/10/28 09:58:25;;;;;;;40.20;23.65;;;;;;;9.78;86.02;100893.19;5008832;28;20053;-52
2021/10/28 10:00:52;;;;;;;38.38;22.75;;;;;;;9.74;86.73;100903.03;5004416;28;20057;-52
2021/10/28 10:03:25;;;;;;;39.05;22.30;;;;;;;9.72;87.30;100896.06;5008813;28;20052;-52
2021/10/28 10:05:59;;;;;;;44.33;24.00;;;;;;;9.73;87.51;100890.72;5019196;28;20037;-52
2021/10/28 10:08:28;;;;;;;39.03;23.58;;;;;;;9.73;87.70;100897.78;5017364;28;20075;-52
2021/10/28 10:10:54;;;;;;;45.90;25.63;;;;;;;9.65;87.72;100895.41;5007223;28;20050;-54
2021/10/28 10:13:25;;;;;;;44.08;25.63;;;;;;;9.62;88.42;100892.00;5020755;28;20558;-54
2021/10/28 10:15:56;;;;;;;41.65;24.40;;;;;;;9.48;88.34;100874.84;4993689;28;20045;-53
2021/10/28 10:18:29;;;;;;;41.78;24.15;;;;;;;9.60;88.73;100888.56;5022147;28;20051;-54
2021/10/28 10:23:45;;;;;;;42.38;25.67;;;;;;;9.47;88.87;100888.97;5015191;28;20053;-52
2021/10/28 10:26:31;;;;;;;42.20;24.05;;;;;;;9.40;89.27;100881.31;5014482;28;20049;-52
2021/10/28 11:19:27;;;;;;;33.88;22.05;;;;;;;9.15;87.42;100866.28;5032454;28;20084;-52
2021/10/28 12:20:35;;;;;;;40.92;22.85;;;;;;;9.12;87.07;100791.56;5042694;28;20674;-52
2021/10/28 12:47:47;;;;;;;41.78;23.58;;;;;;;9.50;86.95;100750.53;5043936;28;20064;-53
2021/10/28 13:36:18;;;;;;;42.15;24.23;;;;;;;9.67;86.68;100720.81;5030124;28;20037;-53
2021/10/28 15:02:45;;;;;;;43.92;24.05;;;;;;;9.69;89.77;100679.31;5033315;28;20516;-53
2021/10/28 15:35:10;;;;;;;42.03;24.27;;;;;;;9.61;91.04;100663.75;5036426;28;20049;-53
2021/10/28 15:40:13;;;;;;;41.33;23.10;;;;;;;9.60;91.32;100655.91;5036368;28;20066;-53
2021/10/28 15:56:30;;;;;;;44.83;25.38;;;;;;;9.52;91.92;100652.69;5034860;28;20041;-52
2021/10/28 16:23:35;;;;;;;44.10;24.98;;;;;;;9.39;93.12;100645.22;5028099;28;20539;-53
2021/10/28 16:26:02;;;;;;;47.97;25.77;;;;;;;9.43;93.23;100643.31;5040642;28;20068;-58
2021/10/28 16:28:29;;;;;;;47.10;25.25;;;;;;;9.39;92.96;100633.78;5034877;28;20045;-54
2021/10/28 16:30:56;;;;;;;46.85;25.25;;;;;;;9.40;93.66;100638.16;5031489;28;20045;-54
2021/10/28 16:33:23;;;;;;;45.08;24.98;;;;;;;9.40;93.62;100639.00;5027483;28;20041;-53
2021/10/28 16:35:49;;;;;;;41.15;23.75;;;;;;;9.40;93.68;100641.66;5036310;28;20048;-53
2021/10/28 16:38:18;;;;;;;45.67;25.48;;;;;;;9.39;93.76;100644.34;5047995;28;20040;-52
2021/10/28 16:40:45;;;;;;;43.13;24.48;;;;;;;9.36;93.88;100644.47;5030248;28;20053;-52
2021/10/28 16:43:11;;;;;;;46.65;25.65;;;;;;;9.34;93.52;100641.88;5032652;28;20045;-53
2021/10/28 16:45:38;;;;;;;44.20;25.52;;;;;;;9.33;93.78;100642.78;5033337;28;20407;-52
2021/10/28 16:48:07;;;;;;;46.65;26.08;;;;;;;9.32;93.76;100634.91;5043289;28;20308;-52
2021/10/28 16:50:35;;;;;;;50.15;26.27;;;;;;;9.30;94.03;100629.69;5041400;28;20053;-53
2021/10/28 16:53:03;;;;;;;46.00;25.50;;;;;;;9.32;93.57;100629.63;5030073;28;20053;-52
2021/10/28 16:55:50;;;;;;;44.35;24.80;;;;;;;9.27;94.09;100637.75;5037668;28;20387;-52
2021/10/28 16:58:16;;;;;;;48.17;26.23;;;;;;;9.26;94.09;100641.31;5039943;28;20053;-53
2021/10/28 17:00:43;;;;;;;43.72;25.67;;;;;;;9.24;94.30;100647.59;5039834;28;20498;-52
2021/10/28 17:03:10;;;;;;;47.15;27.30;;;;;;;9.22;94.38;100642.34;5029628;28;20102;-52
2021/10/28 17:05:36;;;;;;;47.80;25.02;;;;;;;9.21;94.71;100643.28;5043879;28;20085;-53
2021/10/28 17:08:03;;;;;;;45.72;25.83;;;;;;;9.07;94.84;100613.88;5040239;28;20049;-53
2021/10/28 17:10:30;;;;;;;44.80;25.50;;;;;;;9.19;94.67;100634.53;5033833;28;20071;-53
2021/10/28 17:12:57;;;;;;;44.40;24.90;;;;;;;9.19;95.09;100631.88;5027157;28;20048;-53
2021/10/28 17:15:24;;;;;;;43.75;24.58;;;;;;;9.20;95.24;100624.81;5032952;28;20061;-52
2021/10/28 17:17:51;;;;;;;44.08;24.75;;;;;;;9.10;95.56;100619.03;5035113;28;20045;-55
2021/10/28 17:20:19;;;;;;;49.17;26.38;;;;;;;9.24;95.41;100644.94;5040716;28;20068;-52
2021/10/28 17:22:46;;;;;;;50.30;28.50;;;;;;;9.23;95.33;100637.94;5030146;28;20045;-53
2021/10/28 17:25:20;;;;;;;45.72;25.35;;;;;;;9.22;95.42;100636.19;5031483;28;20045;-52
2021/10/28 17:27:48;;;;;;;49.35;26.45;;;;;;;9.21;95.58;100637.97;5039006;28;20573;-53
2021/10/28 17:30:16;;;;;;;52.35;28.15;;;;;;;9.20;95.11;100635.41;5038538;28;20042;-52
2021/10/28 17:32:44;;;;;;;51.40;28.52;;;;;;;9.05;95.35;100613.91;5024195;28;20143;-53
2021/10/28 17:35:12;;;;;;;55.70;28.98;;;;;;;9.15;95.72;100630.28;5032112;28;20053;-53
2021/10/28 17:37:38;;;;;;;52.65;27.35;;;;;;;9.14;95.85;100633.84;5034063;28;20401;-52
2021/10/28 17:40:05;;;;;;;52.60;28.95;;;;;;;9.14;96.04;100625.91;5035893;28;20435;-53
2021/10/28 17:42:33;;;;;;;51.78;28.38;;;;;;;9.15;95.80;100619.69;5032453;28;20045;-53
2021/10/28 17:45:01;;;;;;;53.17;29.13;;;;;;;9.19;95.79;100625.75;5029506;28;20059;-52
2021/10/28 17:47:29;;;;;;;52.22;28.55;;;;;;;9.20;95.93;100623.03;5028370;28;20252;-53
2021/10/28 17:49:56;;;;;;;51.38;27.52;;;;;;;9.15;96.02;100628.50;5038098;28;20041;-54
2021/10/28 17:52:36;;;;;;;52.03;28.08;;;;;;;9.15;96.16;100625.00;5014666;28;20052;-54
2021/10/28 17:55:05;;;;;;;57.40;30.23;;;;;;;9.12;96.33;100623.34;5035791;28;20135;-54
2021/10/28 17:57:31;;;;;;;57.65;31.60;;;;;;;9.16;96.53;100629.34;5034815;28;20049;-54
2021/10/28 17:59:58;;;;;;;55.40;30.00;;;;;;;9.03;96.20;100602.53;5033899;28;20045;-53
2021/10/28 18:02:25;;;;;;;52.67;28.25;;;;;;;9.17;96.66;100640.78;5029837;28;20522;-52
2021/10/28 18:04:51;;;;;;;57.03;30.00;;;;;;;9.17;96.85;100632.84;5034552;28;20258;-51
2021/10/28 18:07:18;;;;;;;58.38;31.10;;;;;;;9.15;96.58;100628.50;5039754;28;20057;-54
2021/10/28 18:09:46;;;;;;;60.67;32.53;;;;;;;9.18;96.73;100638.09;5024734;28;20049;-52
2021/10/28 18:12:13;;;;;;;59.88;31.50;;;;;;;9.19;96.80;100639.81;5029935;28;20151;-52
2021/10/28 18:14:40;;;;;;;57.10;31.02;;;;;;;9.19;96.95;100631.03;5028821;28;20053;-53
2021/10/28 18:17:08;;;;;;;60.45;32.83;;;;;;;9.21;96.96;100623.91;5035204;28;20130;-53
2021/10/28 18:19:34;;;;;;;67.32;33.40;;;;;;;9.23;97.07;100625.56;5030064;28;20048;-53
2021/10/28 18:22:01;;;;;;;62.25;32.97;;;;;;;9.22;96.50;100621.22;5030282;28;20392;-53
2021/10/28 18:24:28;;;;;;;62.20;32.33;;;;;;;9.26;96.15;100616.69;5025990;28;20053;-55
2021/10/28 18:26:54;;;;;;;59.17;31.42;;;;;;;9.25;96.37;100625.53;5036309;28;20041;-54
2021/10/28 18:29:21;;;;;;;59.80;30.95;;;;;;;9.23;96.58;100619.44;5029003;28;20049;-52
2021/10/28 18:31:48;;;;;;;63.47;33.35;;;;;;;9.15;96.72;100604.72;5032499;28;20049;-53
2021/10/28 18:34:15;;;;;;;62.08;30.95;;;;;;;9.25;96.41;100626.38;5025130;28;20036;-53
2021/10/28 18:36:42;;;;;;;61.45;31.27;;;;;;;9.26;96.19;100629.88;5032272;28;20052;-53
2021/10/28 18:39:11;;;;;;;57.72;30.45;;;;;;;9.12;96.41;100614.56;5033437;28;20052;-52
2021/10/28 18:41:38;;;;;;;58.30;31.48;;;;;;;9.25;96.81;100625.53;5026898;28;20456;-53
2021/10/28 18:44:04;;;;;;;58.88;30.38;;;;;;;9.25;97.17;100612.31;5027547;28;20037;-54
2021/10/28 18:46:33;;;;;;;61.05;32.15;;;;;;;9.30;96.79;100619.13;5030362;28;20055;-54
2021/10/28 18:49:02;;;;;;;63.75;31.20;;;;;;;9.29;96.84;100612.13;5030160;28;20049;-54
2021/10/28 18:51:31;;;;;;;63.47;33.03;;;;;;;9.31;96.89;100612.06;5038161;28;20466;-53
2021/10/28 18:53:59;;;;;;;59.90;31.65;;;;;;;9.31;97.00;100615.56;5022615;28;20056;-55
2021/10/28 18:56:25;;;;;;;60.72;32.13;;;;;;;9.26;96.71;100591.13;5026958;28;20053;-54
2021/10/28 18:58:54;;;;;;;61.10;33.03;;;;;;;9.31;96.88;100596.19;5027142;28;20122;-53
2021/10/28 19:01:21;;;;;;;57.63;31.35;;;;;;;9.32;96.76;100592.63;5027199;28;20056;-53
2021/10/28 19:03:51;;;;;;;63.40;32.45;;;;;;;9.31;96.75;100591.78;5024472;28;20055;-52
2021/10/28 19:06:17;;;;;;;61.33;32.38;;;;;;;9.29;97.24;100582.19;5029821;28;20048;-53
2021/10/28 19:08:44;;;;;;;58.53;30.67;;;;;;;9.26;97.13;100582.31;5024237;28;20064;-52
2021/10/28 19:11:12;;;;;;;58.75;30.88;;;;;;;9.21;97.29;100579.00;5021300;28;20135;-52
2021/10/28 19:13:41;;;;;;;64.57;32.60;;;;;;;9.17;97.43;100574.72;5028462;28;20067;-53
2021/10/28 19:16:09;;;;;;;63.25;32.78;;;;;;;9.14;97.56;100575.72;5029411;28;20053;-53
2021/10/28 19:18:37;;;;;;;67.40;34.03;;;;;;;9.12;97.75;100569.66;5035715;28;20414;-53
2021/10/28 19:21:04;;;;;;;57.72;31.60;;;;;;;9.10;97.81;100564.41;5034279;28;20037;-53
2021/10/28 19:23:32;;;;;;;64.65;34.17;;;;;;;9.11;98.16;100568.78;5028526;28;20049;-54
2021/10/28 19:25:58;;;;;;;67.40;33.97;;;;;;;9.11;98.38;100568.78;5034578;28;20049;-54
2021/10/28 19:28:26;;;;;;;62.22;33.15;;;;;;;9.12;98.84;100564.38;5038819;28;20056;-54
2021/10/28 19:31:05;;;;;;;67.35;33.38;;;;;;;9.14;98.77;100563.34;5030009;28;20047;-54
2021/10/28 19:36:12;;;;;;;64.00;33.05;;;;;;;9.13;98.24;100548.44;5036254;28;20059;-53
2021/10/28 19:46:19;;;;;;;62.80;32.15;;;;;;;9.09;98.84;100541.56;5033438;28;20072;-53
2021/10/28 19:48:47;;;;;;;64.40;32.65;;;;;;;9.08;99.00;100541.63;5042714;28;20073;-54
2021/10/28 19:51:15;;;;;;;62.78;32.95;;;;;;;9.09;98.85;100541.56;5037132;28;20041;-52
2021/10/28 19:53:44;;;;;;;58.38;31.27;;;;;;;9.10;98.99;100527.44;5029611;28;20045;-52
2021/10/28 19:56:14;;;;;;;55.42;30.30;;;;;;;9.09;98.80;100522.22;5033106;28;20049;-52
2021/10/28 19:59:02;;;;;;;50.65;29.77;;;;;;;9.07;98.77;100524.03;5032504;28;20383;-52
2021/10/28 20:02:07;;;;;;;54.83;29.73;;;;;;;9.06;98.76;100520.53;5031260;28;20049;-52
2021/10/28 20:20:26;;;;;;;51.13;29.65;;;;;;;8.78;99.36;100520.75;5041426;28;20068;-53